Time;durP1;ratioP1;P1;durP2;ratioP2;P2;SDS_P1;SDS_P2;PMS_P1;PMS_P2;Temp;Humidity;BMP_temperature;BMP_pressure;BME280_temperature;BME280_humidity;BME280_pressure;Samples;Min_cycle;Max_cycle;Signal;HPM_P1;HPM_P2
2022/03/25 00:02:23;;;;;;;64.53;39.00;;;;;;;7.43;60.08;102185.13;4980361;28;20062;-88
2022/03/25 00:04:50;;;;;;;68.25;40.63;;;;;;;7.28;61.29;102189.53;4980684;28;20206;-89
2022/03/25 00:07:16;;;;;;;66.20;39.83;;;;;;;7.46;59.82;102190.16;4980717;28;20074;-86
2022/03/25 00:09:43;;;;;;;67.10;39.17;;;;;;;7.51;59.82;102185.50;4980250;28;20478;-89
2022/03/25 00:12:10;;;;;;;65.75;39.45;;;;;;;7.50;59.42;102186.44;4980100;28;20106;-88
2022/03/25 00:14:37;;;;;;;65.28;38.72;;;;;;;7.40;59.39;102168.88;4980575;28;20062;-89
2022/03/25 00:17:04;;;;;;;58.22;38.13;;;;;;;7.33;59.92;102190.09;4980282;28;20047;-88
2022/03/25 00:19:32;;;;;;;66.03;39.83;;;;;;;7.26;60.42;102186.19;4980395;28;20082;-89
2022/03/25 00:21:59;;;;;;;67.22;38.88;;;;;;;7.15;61.20;102180.00;4980459;28;20113;-89
2022/03/25 00:24:25;;;;;;;66.80;38.72;;;;;;;7.09;61.08;102185.59;4980444;28;20051;-88
2022/03/25 00:26:52;;;;;;;68.95;38.75;;;;;;;7.27;60.35;102185.28;4980491;28;20114;-88
2022/03/25 00:29:19;;;;;;;66.13;39.22;;;;;;;7.23;59.88;102180.34;4980196;28;20138;-88
2022/03/25 00:31:46;;;;;;;65.22;39.80;;;;;;;7.33;59.95;102192.69;4980169;28;20054;-87
2022/03/25 00:34:12;;;;;;;68.90;39.05;;;;;;;7.35;59.69;102181.34;4980072;28;20047;-88
2022/03/25 00:36:40;;;;;;;64.50;39.35;;;;;;;7.33;59.44;102187.50;4983932;28;20051;-88
2022/03/25 00:39:08;;;;;;;59.15;36.67;;;;;;;7.39;59.40;102193.25;4987530;28;20050;-88
2022/03/25 00:41:45;;;;;;;69.28;38.65;;;;;;;7.33;59.71;102177.06;4983294;28;20422;-88
2022/03/25 00:44:12;;;;;;;66.57;39.20;;;;;;;7.23;59.74;102185.56;4982289;28;20134;-89
2022/03/25 00:46:39;;;;;;;68.75;38.95;;;;;;;7.09;60.46;102173.41;4981808;28;20490;-89
2022/03/25 00:49:05;;;;;;;61.55;38.95;;;;;;;7.13;59.79;102187.06;4982353;28;20062;-89
2022/03/25 00:51:33;;;;;;;63.65;39.55;;;;;;;7.03;60.33;102172.97;4980932;28;20065;-89
2022/03/25 00:54:02;;;;;;;69.13;37.35;;;;;;;7.06;60.17;102186.63;4980739;28;20047;-89
2022/03/25 00:56:29;;;;;;;61.88;37.10;;;;;;;6.96;60.30;102170.75;4980944;28;20080;-89
2022/03/25 00:58:55;;;;;;;63.90;38.47;;;;;;;6.92;60.42;102163.22;4979174;28;20425;-87
2022/03/25 01:01:22;;;;;;;62.92;39.38;;;;;;;6.97;60.90;102177.63;4979323;28;20099;-89
2022/03/25 01:03:49;;;;;;;63.13;36.92;;;;;;;6.79;60.49;102163.13;4979217;28;20094;-88
2022/03/25 01:06:17;;;;;;;59.58;36.78;;;;;;;6.85;61.06;102167.97;4979943;28;20236;-89
2022/03/25 01:08:44;;;;;;;61.97;36.38;;;;;;;6.86;60.21;102177.44;4980210;28;20046;-88
2022/03/25 01:11:13;;;;;;;63.00;38.53;;;;;;;6.89;60.23;102174.66;4979994;28;20554;-88
2022/03/25 01:13:39;;;;;;;63.90;39.08;;;;;;;6.81;60.30;102160.44;4979820;28;20053;-89
2022/03/25 01:16:07;;;;;;;62.90;36.95;;;;;;;6.79;60.46;102173.53;4979588;28;20142;-88
2022/03/25 01:18:34;;;;;;;59.25;35.38;;;;;;;6.79;60.63;102168.34;4979908;28;20125;-87
2022/03/25 01:21:00;;;;;;;65.47;37.08;;;;;;;6.76;60.46;102167.69;4979171;28;20134;-88
2022/03/25 01:23:27;;;;;;;63.13;37.35;;;;;;;6.63;61.00;102157.19;4978688;28;20134;-89
2022/03/25 01:25:54;;;;;;;61.35;36.78;;;;;;;6.65;61.02;102174.38;4979385;28;20070;-88
2022/03/25 01:28:23;;;;;;;66.20;37.20;;;;;;;6.54;61.00;102162.97;4979158;28;20149;-88
2022/03/25 01:30:50;;;;;;;67.13;39.40;;;;;;;6.56;61.34;102171.50;4979746;28;20484;-88
2022/03/25 01:33:18;;;;;;;64.38;36.97;;;;;;;6.64;60.94;102179.66;4979394;28;20545;-88
2022/03/25 01:35:45;;;;;;;60.72;36.40;;;;;;;6.67;60.81;102156.06;4979692;28;20081;-88
2022/03/25 01:38:13;;;;;;;62.55;37.40;;;;;;;6.57;61.02;102163.63;4979703;28;20085;-87
2022/03/25 01:40:39;;;;;;;59.53;36.45;;;;;;;6.55;60.98;102164.66;4978383;28;20050;-87
2022/03/25 01:43:07;;;;;;;60.75;37.22;;;;;;;6.53;61.49;102161.28;4978683;28;20054;-87
2022/03/25 01:45:37;;;;;;;64.38;35.67;;;;;;;6.43;61.92;102157.56;4978578;28;20030;-88
2022/03/25 01:48:09;;;;;;;62.03;37.15;;;;;;;6.38;61.95;102167.41;4979198;28;20047;-87
2022/03/25 01:50:36;;;;;;;60.75;36.75;;;;;;;6.23;62.99;102159.59;4979156;28;20505;-89
2022/03/25 01:53:04;;;;;;;71.03;37.15;;;;;;;6.05;63.26;102160.69;4979411;28;20097;-88
2022/03/25 01:55:38;;;;;;;63.83;37.05;;;;;;;6.08;63.37;102165.69;4979132;28;20202;-88
2022/03/25 01:58:06;;;;;;;72.22;35.97;;;;;;;6.00;63.27;102167.91;4979397;28;20152;-89
2022/03/25 02:00:34;;;;;;;61.35;37.08;;;;;;;5.92;64.08;102149.31;4978710;28;20034;-89
2022/03/25 02:03:01;;;;;;;62.47;38.10;;;;;;;5.97;64.32;102160.28;4979366;28;20081;-89
2022/03/25 02:05:28;;;;;;;62.58;36.70;;;;;;;5.90;63.68;102164.16;4979429;28;20138;-89
2022/03/25 02:07:55;;;;;;;67.65;37.83;;;;;;;5.89;64.39;102165.09;4979180;28;20062;-89
2022/03/25 02:10:22;;;;;;;63.20;37.17;;;;;;;5.90;64.97;102156.38;4980166;28;20042;-89
2022/03/25 02:12:48;;;;;;;62.30;39.75;;;;;;;5.81;65.26;102172.44;4980279;28;20057;-88
2022/03/25 02:15:15;;;;;;;58.97;37.50;;;;;;;5.67;66.07;102166.25;4979772;28;20118;-88
2022/03/25 02:17:43;;;;;;;62.72;37.83;;;;;;;5.68;65.91;102170.53;4979872;28;20043;-87
2022/03/25 02:20:12;;;;;;;64.93;37.70;;;;;;;5.56;66.26;102173.84;4979750;28;20102;-87
2022/03/25 02:22:41;;;;;;;57.60;36.45;;;;;;;5.52;67.12;102172.34;4984086;28;20034;-88
2022/03/25 02:25:09;;;;;;;61.60;37.33;;;;;;;5.42;67.21;102163.41;4996748;28;20039;-87
2022/03/25 02:27:37;;;;;;;60.65;37.65;;;;;;;5.42;67.70;102165.16;4996958;28;20031;-87
2022/03/25 02:30:06;;;;;;;58.60;36.97;;;;;;;5.26;68.06;102165.16;4997440;28;20035;-88
2022/03/25 02:32:33;;;;;;;60.80;36.08;;;;;;;5.33;67.86;102166.50;4997949;28;20047;-88
2022/03/25 02:35:00;;;;;;;61.92;38.42;;;;;;;5.14;68.54;102163.25;4998047;28;20038;-88
2022/03/25 02:37:26;;;;;;;58.05;36.70;;;;;;;5.16;68.81;102161.41;4997811;28;20119;-87
2022/03/25 02:39:55;;;;;;;70.28;36.60;;;;;;;5.21;68.54;102167.16;4997861;28;20045;-88
2022/03/25 02:42:21;;;;;;;61.10;37.70;;;;;;;5.11;69.06;102171.19;4997639;28;20054;-87
2022/03/25 02:44:48;;;;;;;60.22;36.80;;;;;;;5.04;69.61;102169.84;4997562;28;20050;-88
2022/03/25 02:47:15;;;;;;;60.90;36.78;;;;;;;5.03;69.51;102170.78;4997510;28;20065;-87
2022/03/25 02:49:42;;;;;;;59.75;36.35;;;;;;;5.09;69.85;102175.63;4997843;28;20075;-87
2022/03/25 02:52:08;;;;;;;60.47;36.88;;;;;;;4.99;68.69;102168.34;4997477;28;20051;-88
2022/03/25 02:54:35;;;;;;;61.83;37.05;;;;;;;5.00;69.07;102174.38;4997320;28;20039;-89
2022/03/25 02:57:04;;;;;;;62.20;37.20;;;;;;;4.98;68.53;102171.03;4998065;28;20058;-88
2022/03/25 02:59:30;;;;;;;67.53;36.88;;;;;;;4.99;68.35;102175.28;4990478;28;20091;-88
2022/03/25 03:01:57;;;;;;;64.05;36.42;;;;;;;4.99;68.83;102185.66;4990158;28;20086;-89
2022/03/25 03:04:24;;;;;;;66.43;37.10;;;;;;;5.03;68.30;102182.00;4984927;28;20058;-88
2022/03/25 03:06:51;;;;;;;60.65;34.92;;;;;;;5.11;68.29;102186.78;4983670;28;20078;-90
2022/03/25 03:09:17;;;;;;;62.72;34.63;;;;;;;5.00;67.93;102180.41;4984197;28;20086;-88
2022/03/25 03:11:44;;;;;;;58.03;34.03;;;;;;;5.04;67.42;102175.03;4984947;28;20098;-89
2022/03/25 03:14:12;;;;;;;64.40;36.88;;;;;;;5.03;68.08;102182.00;4983066;28;20047;-89
2022/03/25 03:16:39;;;;;;;61.38;35.13;;;;;;;4.99;68.01;102183.91;4981836;28;20050;-89
2022/03/25 03:19:06;;;;;;;63.92;35.55;;;;;;;4.97;68.14;102185.75;4982270;28;20051;-88
2022/03/25 03:21:32;;;;;;;59.50;34.92;;;;;;;4.93;68.18;102188.59;4981750;28;20047;-89
2022/03/25 03:23:59;;;;;;;61.10;35.13;;;;;;;4.89;68.18;102182.72;4982612;28;20086;-88
2022/03/25 03:26:25;;;;;;;64.38;34.25;;;;;;;4.82;68.05;102178.78;4981874;28;20130;-89
2022/03/25 03:28:53;;;;;;;61.63;34.90;;;;;;;4.81;68.39;102174.50;4981909;28;20141;-88
2022/03/25 03:31:21;;;;;;;60.45;35.15;;;;;;;4.79;68.39;102178.94;4981511;28;20061;-88
2022/03/25 03:33:48;;;;;;;60.42;34.28;;;;;;;4.81;68.31;102189.22;4980890;28;20055;-86
2022/03/25 03:36:14;;;;;;;59.50;34.95;;;;;;;4.78;68.13;102181.59;4981259;28;20422;-88
2022/03/25 03:38:41;;;;;;;59.13;34.38;;;;;;;4.82;68.18;102180.53;4980184;28;20134;-88
2022/03/25 03:41:08;;;;;;;54.97;33.60;;;;;;;4.84;67.70;102189.91;4981100;28;20086;-89
2022/03/25 03:43:34;;;;;;;62.70;34.40;;;;;;;4.86;67.76;102188.06;4980931;28;20090;-89
2022/03/25 03:46:01;;;;;;;57.50;33.97;;;;;;;4.88;68.31;102188.81;4980667;28;20130;-88
2022/03/25 03:48:29;;;;;;;67.65;35.42;;;;;;;4.81;68.89;102197.00;4980451;28;20142;-88
2022/03/25 03:50:56;;;;;;;68.32;34.72;;;;;;;4.85;68.80;102181.19;4980610;28;20544;-88
2022/03/25 03:53:22;;;;;;;57.47;35.17;;;;;;;4.81;68.43;102190.06;4980775;28;20129;-88
2022/03/25 03:55:49;;;;;;;62.60;35.20;;;;;;;4.82;69.10;102186.56;4981071;28;20423;-89
2022/03/25 03:58:16;;;;;;;66.22;35.65;;;;;;;4.75;69.83;102195.56;4980415;28;20055;-88
2022/03/25 04:00:42;;;;;;;66.10;35.72;;;;;;;4.64;69.82;102198.75;4980985;28;20046;-89
2022/03/25 04:03:09;;;;;;;61.67;35.15;;;;;;;4.60;70.72;102197.22;4980172;28;20138;-89
2022/03/25 04:05:37;;;;;;;62.33;37.17;;;;;;;4.52;70.70;102199.38;4980487;28;20081;-87
2022/03/25 04:08:05;;;;;;;59.28;35.45;;;;;;;4.52;71.08;102198.53;4980238;28;20050;-87
2022/03/25 04:10:32;;;;;;;62.20;36.25;;;;;;;4.52;70.59;102204.56;4980172;28;20098;-88
2022/03/25 04:12:58;;;;;;;71.57;36.00;;;;;;;4.53;71.20;102200.22;4980695;28;20129;-87
2022/03/25 04:15:25;;;;;;;65.50;36.28;;;;;;;4.49;71.32;102206.47;4980713;28;20130;-88
2022/03/25 04:17:51;;;;;;;63.83;36.78;;;;;;;4.41;71.81;102198.25;4980504;28;20054;-87
2022/03/25 04:20:18;;;;;;;60.38;36.13;;;;;;;4.36;71.78;102197.63;4980520;28;20137;-88
2022/03/25 04:22:47;;;;;;;60.88;35.90;;;;;;;4.29;72.39;102195.34;4981982;28;20086;-87
2022/03/25 04:25:14;;;;;;;62.85;35.78;;;;;;;4.26;72.69;102197.25;4980866;28;20096;-89
2022/03/25 04:27:48;;;;;;;75.03;36.60;;;;;;;4.10;73.49;102201.53;4981141;28;20479;-89
2022/03/25 04:30:18;;;;;;;67.68;35.50;;;;;;;4.03;73.18;102200.16;4980826;28;20054;-88
2022/03/25 04:32:45;;;;;;;60.33;35.30;;;;;;;3.96;73.59;102209.97;4979895;28;20050;-88
2022/03/25 04:35:12;;;;;;;70.07;35.80;;;;;;;3.90;74.32;102203.34;4979827;28;20513;-88
2022/03/25 04:37:39;;;;;;;58.65;34.95;;;;;;;3.82;74.09;102204.63;4980740;28;20122;-89
2022/03/25 04:40:09;;;;;;;65.93;37.97;;;;;;;3.84;74.88;102210.56;4980379;28;20146;-88
2022/03/25 04:42:35;;;;;;;65.63;35.55;;;;;;;3.90;74.07;102211.13;4979763;28;20131;-88
2022/03/25 04:45:02;;;;;;;62.58;37.03;;;;;;;3.94;74.32;102201.44;4980711;28;20091;-88
2022/03/25 04:47:28;;;;;;;65.63;36.88;;;;;;;3.87;75.13;102207.84;4981375;28;20070;-88
2022/03/25 04:49:56;;;;;;;67.00;36.78;;;;;;;3.82;74.48;102196.88;4981025;28;20067;-88
2022/03/25 04:52:22;;;;;;;60.72;35.67;;;;;;;3.85;74.40;102207.91;4980728;28;20054;-88
2022/03/25 04:54:49;;;;;;;68.18;36.80;;;;;;;3.76;75.98;102216.16;4981695;28;20141;-88
2022/03/25 04:57:18;;;;;;;70.30;38.25;;;;;;;3.88;75.53;102218.13;4981970;28;20069;-88
2022/03/25 04:59:44;;;;;;;70.80;37.85;;;;;;;3.85;75.29;102213.09;4982052;28;20126;-88
2022/03/25 05:02:11;;;;;;;66.05;37.58;;;;;;;3.81;75.72;102210.72;4981935;28;20134;-88
2022/03/25 05:04:38;;;;;;;65.53;38.08;;;;;;;3.75;75.67;102218.81;4981599;28;20086;-87
2022/03/25 05:07:05;;;;;;;66.57;37.58;;;;;;;3.79;75.74;102215.13;4980618;28;20078;-88
2022/03/25 05:09:33;;;;;;;67.03;38.42;;;;;;;3.73;75.85;102211.13;4980255;28;20066;-89
2022/03/25 05:12:00;;;;;;;61.08;36.97;;;;;;;3.75;75.91;102205.88;4980228;28;20158;-88
2022/03/25 05:14:28;;;;;;;62.13;38.00;;;;;;;3.87;75.48;102223.38;4979799;28;20050;-88
2022/03/25 05:16:55;;;;;;;66.93;39.22;;;;;;;4.00;74.91;102221.88;4978884;28;20109;-88
2022/03/25 05:19:21;;;;;;;66.32;37.60;;;;;;;3.96;75.05;102199.63;4979216;28;20494;-88
2022/03/25 05:21:48;;;;;;;72.32;37.97;;;;;;;4.08;74.71;102221.50;4977911;28;20506;-88
2022/03/25 05:24:15;;;;;;;67.47;37.90;;;;;;;4.16;74.47;102222.81;4979253;28;20110;-89
2022/03/25 05:26:42;;;;;;;67.78;39.38;;;;;;;4.13;74.78;102216.94;4978630;28;20042;-88
2022/03/25 05:29:09;;;;;;;65.57;37.78;;;;;;;4.10;75.12;102223.09;4978871;28;20138;-88
2022/03/25 05:31:38;;;;;;;72.28;39.53;;;;;;;3.89;75.30;102209.44;4979732;28;20057;-89
2022/03/25 05:34:05;;;;;;;64.15;38.45;;;;;;;4.05;75.53;102219.06;4979093;28;20078;-89
2022/03/25 05:36:32;;;;;;;68.07;38.95;;;;;;;3.99;75.11;102220.19;4980086;28;20042;-89
2022/03/25 05:38:59;;;;;;;72.72;40.42;;;;;;;3.98;75.75;102226.28;4980247;28;20074;-88
2022/03/25 05:41:27;;;;;;;66.28;37.85;;;;;;;3.95;76.21;102223.84;4981299;28;20153;-92
2022/03/25 06:00:45;;;;;;;71.35;38.97;;;;;;;4.10;76.21;102230.88;4940340;28;20083;-91
2022/03/25 06:06:35;;;;;;;78.50;38.92;;;;;;;4.09;75.73;102238.72;5103221;23;20580;-86
2022/03/25 06:09:03;;;;;;;81.22;39.08;;;;;;;4.04;75.64;102235.50;4984961;28;20047;-85
2022/03/25 06:11:33;;;;;;;74.13;38.22;;;;;;;4.24;76.37;102258.72;4985291;28;20046;-85
2022/03/25 06:14:04;;;;;;;65.80;37.35;;;;;;;4.22;76.07;102243.25;4984678;28;20054;-85
2022/03/25 06:16:36;;;;;;;64.80;36.55;;;;;;;4.26;75.43;102244.72;4984627;28;20078;-85
2022/03/25 06:19:04;;;;;;;68.25;39.88;;;;;;;4.33;75.93;102250.44;5007750;23;20046;-82
2022/03/25 06:21:31;;;;;;;117.22;67.80;;;;;;;4.41;75.46;102257.84;4984643;28;20046;-82
2022/03/25 06:23:58;;;;;;;84.82;47.00;;;;;;;4.58;75.41;102250.06;4986452;28;20082;-82
2022/03/25 06:26:24;;;;;;;74.53;39.28;;;;;;;4.65;73.70;102241.91;4979972;28;20082;-82
2022/03/25 06:28:52;;;;;;;70.22;39.30;;;;;;;5.32;72.65;102248.72;4978480;28;20051;-82
2022/03/25 06:31:19;;;;;;;73.10;39.55;;;;;;;6.07;69.15;102267.97;4976858;28;20501;-81
2022/03/25 06:33:50;;;;;;;65.20;37.45;;;;;;;6.37;67.40;102267.97;4997426;28;20050;-81
2022/03/25 06:36:18;;;;;;;73.53;38.30;;;;;;;6.98;65.85;102267.78;4999531;28;20066;-83
2022/03/25 06:38:45;;;;;;;64.55;37.85;;;;;;;6.69;65.45;102266.06;5000741;28;20189;-82
2022/03/25 06:41:12;;;;;;;64.22;37.47;;;;;;;7.66;63.00;102257.44;4999653;28;20061;-83
2022/03/25 06:43:39;;;;;;;63.10;36.55;;;;;;;7.85;62.40;102259.72;4999013;28;20080;-83
2022/03/25 06:46:06;;;;;;;71.45;38.50;;;;;;;7.74;62.67;102274.34;4999579;28;20054;-83
2022/03/25 06:48:33;;;;;;;68.15;37.80;;;;;;;8.41;60.34;102281.28;5000732;28;20082;-83
2022/03/25 06:51:04;;;;;;;61.75;38.72;;;;;;;8.57;59.52;102273.25;4987604;28;20097;-83
2022/03/25 06:53:32;;;;;;;66.28;39.20;;;;;;;8.84;59.29;102276.59;4996031;28;20065;-83
2022/03/25 06:55:59;;;;;;;61.50;39.38;;;;;;;9.28;57.68;102264.84;5001699;28;20082;-82
2022/03/25 06:58:26;;;;;;;62.03;37.85;;;;;;;9.77;56.93;102270.03;5002333;28;20421;-81
2022/03/25 07:00:54;;;;;;;65.43;37.95;;;;;;;9.34;57.45;102276.66;5001090;28;20116;-85
2022/03/25 07:03:21;;;;;;;62.30;38.63;;;;;;;9.35;57.35;102271.31;5000738;28;20472;-82
2022/03/25 07:05:48;;;;;;;69.63;40.55;;;;;;;10.42;55.19;102271.38;5002494;28;20480;-82
2022/03/25 07:08:16;;;;;;;73.75;39.78;;;;;;;10.61;54.15;102274.28;5000133;28;20061;-84
2022/03/25 07:10:43;;;;;;;65.13;40.00;;;;;;;10.63;54.31;102288.09;5000800;28;20082;-83
2022/03/25 07:13:11;;;;;;;58.75;39.00;;;;;;;11.07;52.99;102276.81;5001786;28;20129;-83
2022/03/25 07:15:38;;;;;;;60.35;40.35;;;;;;;11.08;53.67;102290.75;5002020;28;20149;-84
2022/03/25 07:18:05;;;;;;;58.40;39.88;;;;;;;10.71;54.05;102279.66;5003110;28;20077;-83
2022/03/25 07:20:32;;;;;;;66.10;40.35;;;;;;;11.07;53.69;102281.22;5007966;28;20070;-84
2022/03/25 07:23:01;;;;;;;58.50;39.38;;;;;;;11.10;53.52;102270.50;5008305;28;20101;-83
2022/03/25 07:25:45;;;;;;;63.05;40.33;;;;;;;11.54;52.51;102278.31;5006901;28;20122;-83
2022/03/25 07:28:15;;;;;;;61.35;39.78;;;;;;;11.68;50.74;102271.97;5006410;28;20050;-85
2022/03/25 07:30:47;;;;;;;65.15;40.78;;;;;;;11.36;52.79;102260.56;5002284;28;20062;-85
2022/03/25 07:33:13;;;;;;;65.68;40.53;;;;;;;11.80;51.30;102273.66;4999785;28;20121;-82
2022/03/25 07:35:40;;;;;;;60.28;40.53;;;;;;;11.89;51.11;102270.25;4996720;28;20118;-84
2022/03/25 07:38:07;;;;;;;63.40;42.33;;;;;;;11.83;51.33;102283.03;4999275;28;20054;-85
2022/03/25 07:40:47;;;;;;;64.72;41.33;;;;;;;12.27;50.68;102280.25;5001684;28;20086;-81
2022/03/25 07:43:14;;;;;;;60.70;40.28;;;;;;;12.87;49.98;102291.78;4999763;28;20046;-82
2022/03/25 07:45:40;;;;;;;66.93;42.55;;;;;;;12.22;51.20;102300.78;5004158;28;20054;-82
2022/03/25 07:48:08;;;;;;;64.38;41.50;;;;;;;12.39;51.11;102288.88;5003642;28;20149;-82
2022/03/25 07:50:34;;;;;;;61.75;41.22;;;;;;;12.76;50.95;102285.81;5001671;28;20089;-79
2022/03/25 07:53:03;;;;;;;62.95;42.72;;;;;;;13.06;49.64;102290.22;5007223;28;20046;-81
2022/03/25 07:55:32;;;;;;;62.75;41.33;;;;;;;12.73;51.69;102297.41;5004858;28;20134;-82
2022/03/25 07:58:00;;;;;;;68.45;42.30;;;;;;;13.01;50.50;102280.13;5002667;28;20054;-81
2022/03/25 08:00:28;;;;;;;61.97;41.33;;;;;;;12.81;51.92;102297.56;5007605;28;20064;-80
2022/03/25 08:02:55;;;;;;;65.47;42.13;;;;;;;12.99;51.90;102279.41;5001011;28;20057;-81
2022/03/25 08:05:25;;;;;;;63.67;42.97;;;;;;;12.45;52.26;102306.75;5000740;28;20058;-81
2022/03/25 08:08:02;;;;;;;63.35;43.05;;;;;;;12.72;51.69;102302.78;4998633;28;20430;-80
2022/03/25 08:10:33;;;;;;;67.95;42.95;;;;;;;13.22;51.40;102295.88;4998557;28;20054;-81
2022/03/25 08:13:01;;;;;;;67.40;43.72;;;;;;;13.13;51.49;102310.59;5004633;28;20073;-81
2022/03/25 08:15:29;;;;;;;62.80;43.72;;;;;;;14.27;49.28;102312.78;5006064;28;20089;-81
2022/03/25 08:17:57;;;;;;;67.32;43.55;;;;;;;14.01;47.85;102306.41;5005694;28;20078;-80
2022/03/25 08:20:26;;;;;;;66.60;45.03;;;;;;;14.16;46.19;102312.94;5005969;28;20046;-80
2022/03/25 08:22:53;;;;;;;68.00;44.13;;;;;;;14.43;46.24;102318.34;5004193;28;20085;-80
2022/03/25 08:28:06;;;;;;;69.32;43.75;;;;;;;13.96;47.87;102314.72;5004774;28;20532;-79
2022/03/25 08:30:33;;;;;;;64.63;45.10;;;;;;;14.28;47.19;102325.81;5005199;28;20082;-81
2022/03/25 08:33:01;;;;;;;62.70;42.58;;;;;;;14.16;48.42;102323.47;5001260;28;20046;-82
2022/03/25 08:35:29;;;;;;;64.05;43.35;;;;;;;14.51;48.94;102321.13;5000569;28;20462;-84
2022/03/25 08:37:57;;;;;;;66.30;45.50;;;;;;;14.00;50.38;102323.19;5001967;28;20046;-82
2022/03/25 08:40:29;;;;;;;69.32;44.42;;;;;;;13.84;50.61;102326.34;5004918;28;20050;-86
2022/03/25 08:43:01;;;;;;;71.50;45.08;;;;;;;14.41;49.44;102327.34;5005387;28;20081;-81
2022/03/25 08:45:30;;;;;;;66.45;46.25;;;;;;;14.71;47.91;102314.00;5000513;28;20054;-80
2022/03/25 08:47:56;;;;;;;68.30;45.10;;;;;;;14.97;47.03;102327.41;5000678;28;20082;-81
2022/03/25 08:50:24;;;;;;;69.25;46.03;;;;;;;15.05;46.86;102327.50;5001335;28;20141;-81
2022/03/25 08:52:52;;;;;;;66.97;47.20;;;;;;;14.80;49.06;102331.59;5001169;28;20051;-82
2022/03/25 08:55:22;;;;;;;68.95;47.03;;;;;;;15.01;48.96;102325.31;4999815;28;20073;-82
2022/03/25 08:57:50;;;;;;;67.60;47.13;;;;;;;15.10;50.13;102332.34;5000673;28;20130;-81
2022/03/25 09:00:19;;;;;;;69.57;46.58;;;;;;;14.91;49.75;102334.06;5000693;28;20050;-82
2022/03/25 09:02:50;;;;;;;73.00;48.08;;;;;;;15.11;49.05;102331.38;5002609;28;20132;-82
2022/03/25 09:05:20;;;;;;;74.38;48.13;;;;;;;14.65;50.62;102335.63;5001825;28;20046;-82
2022/03/25 09:07:49;;;;;;;69.03;48.28;;;;;;;14.60;51.01;102335.25;5002362;28;20084;-82
2022/03/25 09:10:16;;;;;;;68.80;47.47;;;;;;;15.16;50.03;102326.47;5001001;28;20078;-82
2022/03/25 09:12:43;;;;;;;67.07;46.47;;;;;;;15.58;48.13;102319.81;5003502;28;20576;-82
2022/03/25 09:15:12;;;;;;;68.97;46.17;;;;;;;15.15;49.08;102325.66;4999138;28;20050;-81
2022/03/25 09:17:39;;;;;;;62.65;45.25;;;;;;;15.40;49.91;102323.34;5004374;28;20493;-84
2022/03/25 09:20:08;;;;;;;65.70;45.58;;;;;;;15.37;49.30;102302.53;5007738;28;20058;-86
2022/03/25 09:22:35;;;;;;;63.67;47.35;;;;;;;15.77;48.01;102318.00;5007580;28;20064;-84
2022/03/25 09:25:04;;;;;;;66.72;47.72;;;;;;;15.69;47.47;102310.81;5007214;28;20072;-84
2022/03/25 09:27:30;;;;;;;60.45;41.75;;;;;;;15.38;47.65;102320.84;5005672;28;20053;-83
2022/03/25 09:29:57;;;;;;;69.15;46.38;;;;;;;15.53;48.66;102332.56;5005115;28;20105;-84
2022/03/25 09:32:24;;;;;;;66.78;42.22;;;;;;;15.14;48.44;102321.34;5004647;28;20080;-85
2022/03/25 09:37:37;;;;;;;57.28;38.95;;;;;;;14.80;47.76;102331.59;5001930;28;20105;-82
2022/03/25 09:40:04;;;;;;;65.30;44.72;;;;;;;14.57;49.73;102320.56;4998509;28;20133;-81
2022/03/25 09:42:31;;;;;;;58.90;41.33;;;;;;;14.58;50.65;102324.03;4998233;28;20042;-81
2022/03/25 09:44:59;;;;;;;62.88;39.45;;;;;;;14.49;49.75;102322.22;4999784;28;20091;-81
2022/03/25 09:47:25;;;;;;;64.18;42.22;;;;;;;15.02;49.65;102325.16;4999039;28;20525;-81
2022/03/25 09:49:52;;;;;;;62.67;42.42;;;;;;;15.18;48.85;102325.38;4999006;28;20111;-82
2022/03/25 09:52:19;;;;;;;64.00;41.08;;;;;;;15.57;48.65;102312.88;4987650;28;20125;-82
2022/03/25 09:54:47;;;;;;;59.70;39.90;;;;;;;15.24;47.45;102318.69;4989800;28;20057;-80
2022/03/25 09:57:14;;;;;;;62.45;41.88;;;;;;;15.16;49.01;102313.28;4998920;28;20133;-82
2022/03/25 09:59:41;;;;;;;65.90;43.10;;;;;;;15.32;48.43;102316.16;4994471;28;20081;-81
2022/03/25 10:02:10;;;;;;;58.92;40.80;;;;;;;15.28;48.48;102322.69;4998665;28;20069;-82
2022/03/25 10:04:49;;;;;;;64.13;41.50;;;;;;;15.60;47.45;102314.34;4991641;28;20085;-82
2022/03/25 10:07:17;;;;;;;57.88;39.45;;;;;;;15.65;46.53;102316.56;5000033;28;20508;-82
2022/03/25 10:09:44;;;;;;;57.47;38.20;;;;;;;15.81;46.26;102314.09;4990583;28;20107;-83
2022/03/25 10:12:26;;;;;;;54.95;37.72;;;;;;;16.05;45.23;102309.06;4993633;28;20085;-83
2022/03/25 10:15:13;;;;;;;54.60;36.38;;;;;;;15.82;44.59;102307.84;4987974;28;20058;-82
2022/03/25 10:17:57;;;;;;;65.30;37.03;;;;;;;15.83;44.79;102320.06;4998171;28;20054;-82
2022/03/25 10:20:28;;;;;;;61.45;37.10;;;;;;;15.79;43.69;102302.84;4991460;28;20141;-83
2022/03/25 10:23:04;;;;;;;51.72;34.35;;;;;;;15.57;43.39;102302.31;4987141;28;20138;-85
2022/03/25 10:25:44;;;;;;;52.70;33.75;;;;;;;15.99;42.90;102309.66;4997978;28;20069;-83
2022/03/25 10:28:28;;;;;;;58.03;35.25;;;;;;;16.05;42.84;102309.06;4981168;28;20133;-82
2022/03/25 10:30:57;;;;;;;55.47;35.40;;;;;;;15.97;42.68;102301.06;4987292;28;20081;-82
2022/03/25 10:33:30;;;;;;;54.53;34.85;;;;;;;16.44;42.89;102306.91;4999824;28;20106;-84
2022/03/25 10:35:57;;;;;;;;;;;;;;;16.71;43.58;102300.66;4999484;28;20054;-81
2022/03/25 10:38:28;;;;;;;43.85;28.55;;;;;;;16.78;40.00;102300.88;4992964;28;20004;-82
2022/03/25 10:40:57;;;;;;;50.50;29.60;;;;;;;16.49;39.76;102295.88;4994526;28;20133;-83
2022/03/25 10:43:25;;;;;;;41.83;21.35;;;;;;;16.76;36.88;102277.25;4996019;28;20486;-83
2022/03/25 10:45:53;;;;;;;32.33;17.85;;;;;;;16.61;35.94;102281.41;5000388;28;20109;-84
2022/03/25 10:48:21;;;;;;;28.80;15.48;;;;;;;16.99;35.57;102280.19;4999618;28;20046;-84
2022/03/25 10:50:59;;;;;;;35.58;14.73;;;;;;;17.13;34.39;102289.31;5001261;28;20476;-84
2022/03/25 10:56:47;;;;;;;21.67;11.32;;;;;;;16.07;34.53;102269.31;4991522;28;20081;-84
2022/03/25 10:59:25;;;;;;;20.00;9.15;;;;;;;16.02;34.16;102288.25;5000765;28;20053;-84
2022/03/25 11:01:59;;;;;;;25.88;8.95;;;;;;;16.07;32.85;102262.19;5001653;28;20098;-84
2022/03/25 11:07:25;;;;;;;18.85;10.45;;;;;;;16.34;33.62;102271.81;4989137;28;20050;-86
2022/03/25 11:09:53;;;;;;;30.52;11.45;;;;;;;16.65;33.44;102268.75;5008445;28;20054;-84
2022/03/25 11:12:24;;;;;;;18.35;9.68;;;;;;;16.83;32.54;102286.22;5000894;28;20057;-85
2022/03/25 11:14:53;;;;;;;21.05;10.25;;;;;;;16.79;32.39;102269.00;5005818;28;20050;-84
2022/03/25 11:17:23;;;;;;;18.17;10.82;;;;;;;16.79;32.21;102274.28;5008632;28;20046;-83
2022/03/25 11:20:05;;;;;;;20.05;9.13;;;;;;;16.72;31.67;102267.13;5008738;28;20054;-84
2022/03/25 11:22:36;;;;;;;24.67;10.37;;;;;;;16.82;31.23;102287.19;5004872;28;20050;-83
2022/03/25 11:25:05;;;;;;;16.45;8.52;;;;;;;16.83;30.66;102264.22;5003828;28;20137;-85
2022/03/25 11:27:38;;;;;;;23.02;10.80;;;;;;;17.04;31.93;102272.59;5003193;28;20050;-85
2022/03/25 11:30:16;;;;;;;21.80;11.10;;;;;;;16.86;32.56;102259.47;5002318;28;20042;-84
2022/03/25 11:33:01;;;;;;;28.13;12.98;;;;;;;16.69;33.61;102270.09;5002985;28;20057;-83
2022/03/25 11:35:29;;;;;;;26.73;12.63;;;;;;;16.86;33.95;102272.69;5002094;28;20058;-83
2022/03/25 11:38:19;;;;;;;23.63;11.10;;;;;;;17.01;33.64;102261.53;5001768;28;20052;-83
2022/03/25 11:40:47;;;;;;;25.13;13.07;;;;;;;17.06;33.93;102261.84;5002785;28;20104;-83
2022/03/25 11:43:15;;;;;;;26.83;14.15;;;;;;;16.90;33.68;102262.63;5003306;28;20073;-84
2022/03/25 11:45:45;;;;;;;25.65;14.55;;;;;;;16.67;34.03;102257.03;5003137;28;20051;-84
2022/03/25 11:48:38;;;;;;;24.50;13.50;;;;;;;16.99;34.00;102255.56;5003119;28;20133;-85
2022/03/25 11:51:28;;;;;;;23.70;14.25;;;;;;;16.71;34.01;102252.25;5005319;28;20057;-84
2022/03/25 11:53:55;;;;;;;28.95;14.27;;;;;;;17.03;34.44;102252.41;5010710;28;20051;-84